Time;durP1;ratioP1;P1;durP2;ratioP2;P2;SDS_P1;SDS_P2;PMS_P1;PMS_P2;Temp;Humidity;BMP_temperature;BMP_pressure;BME280_temperature;BME280_humidity;BME280_pressure;Samples;Min_cycle;Max_cycle;Signal;HPM_P1;HPM_P2
2023/10/25 00:02:14;;;;;;;13.93;4.32;;;;;;;14.60;61.32;93534.53;5065499;28;20021;-82
2023/10/25 00:04:39;;;;;;;11.23;2.85;;;;;;;14.63;60.66;93536.50;5065615;28;20024;-82
2023/10/25 00:07:05;;;;;;;15.63;3.70;;;;;;;14.65;60.80;93531.56;5065514;28;20230;-82
2023/10/25 00:09:30;;;;;;;13.38;3.20;;;;;;;14.70;60.56;93514.47;5065389;28;20029;-82
2023/10/25 00:11:55;;;;;;;18.33;3.50;;;;;;;14.72;60.54;93499.56;5064296;28;20311;-82
2023/10/25 00:14:21;;;;;;;9.43;3.00;;;;;;;14.77;60.70;93498.53;5065357;28;20047;-82
2023/10/25 00:16:47;;;;;;;9.60;3.20;;;;;;;14.73;61.11;93494.97;5065141;28;20096;-82
2023/10/25 00:19:12;;;;;;;10.95;3.90;;;;;;;14.66;61.56;93489.47;5063850;28;20045;-80
2023/10/25 00:21:38;;;;;;;9.27;2.97;;;;;;;14.68;61.74;93505.97;5065227;28;20021;-79
2023/10/25 00:24:03;;;;;;;15.50;2.95;;;;;;;14.70;61.36;93515.22;5065123;28;20048;-79
2023/10/25 00:26:29;;;;;;;16.92;3.22;;;;;;;14.69;61.72;93504.84;5065089;28;20110;-78
2023/10/25 00:28:54;;;;;;;9.25;3.28;;;;;;;14.67;61.93;93513.22;5064774;28;20029;-78
2023/10/25 00:31:20;;;;;;;7.88;3.53;;;;;;;14.63;61.89;93521.22;5064837;28;20047;-78
2023/10/25 00:33:45;;;;;;;12.95;3.90;;;;;;;14.62;61.83;93511.59;5064767;28;20040;-78
2023/10/25 00:36:10;;;;;;;12.07;3.30;;;;;;;14.66;61.75;93498.28;5064662;28;20023;-78
2023/10/25 00:38:36;;;;;;;18.10;3.78;;;;;;;14.68;61.54;93489.88;5064572;28;20070;-78
2023/10/25 00:41:01;;;;;;;13.55;3.47;;;;;;;14.64;61.48;93487.13;5064645;28;20032;-78
2023/10/25 00:43:26;;;;;;;20.08;3.15;;;;;;;14.61;61.79;93480.56;5064442;28;20032;-78
2023/10/25 00:46:21;;;;;;;12.25;3.70;;;;;;;14.63;62.20;93486.34;5064600;28;20021;-78
2023/10/25 00:48:48;;;;;;;13.40;3.53;;;;;;;14.59;62.24;93482.00;5064531;28;20021;-78
2023/10/25 00:51:15;;;;;;;10.88;3.05;;;;;;;14.59;62.19;93482.81;5063176;28;20058;-79
2023/10/25 00:53:42;;;;;;;12.00;3.15;;;;;;;14.62;62.30;93502.78;5064293;28;20024;-78
2023/10/25 00:56:10;;;;;;;16.60;4.78;;;;;;;14.57;62.09;93522.59;5064606;28;20029;-79
2023/10/25 00:58:37;;;;;;;14.77;3.85;;;;;;;14.53;62.24;93521.69;5064380;28;20036;-79
2023/10/25 01:01:03;;;;;;;20.67;3.53;;;;;;;14.53;61.64;93512.84;5064277;28;20032;-81
2023/10/25 01:03:28;;;;;;;13.13;2.97;;;;;;;14.49;61.98;93506.63;5062985;28;20345;-80
2023/10/25 01:05:54;;;;;;;13.27;3.38;;;;;;;14.45;62.40;93485.88;5064029;28;20025;-78
2023/10/25 01:08:21;;;;;;;17.00;3.70;;;;;;;14.45;62.49;93471.72;5064265;28;20330;-79
2023/10/25 01:10:50;;;;;;;20.73;3.80;;;;;;;14.44;62.53;93464.78;5063982;28;20025;-79
2023/10/25 01:13:17;;;;;;;15.85;3.80;;;;;;;14.48;62.81;93465.63;5064075;28;20029;-79
2023/10/25 01:15:42;;;;;;;17.63;4.03;;;;;;;14.46;63.15;93467.88;5063945;28;20031;-79
2023/10/25 01:18:08;;;;;;;15.48;4.53;;;;;;;14.47;63.09;93471.34;5064017;28;20056;-79
2023/10/25 01:20:35;;;;;;;18.67;4.13;;;;;;;14.47;62.46;93479.38;5063947;28;20031;-80
2023/10/25 01:23:01;;;;;;;32.70;3.47;;;;;;;14.50;62.78;93467.97;5064033;28;20028;-78
2023/10/25 01:25:26;;;;;;;20.02;5.30;;;;;;;14.49;62.80;93472.56;5063782;28;20029;-78
2023/10/25 01:27:51;;;;;;;24.60;3.75;;;;;;;14.47;62.90;93468.66;5063907;28;20064;-78
2023/10/25 01:30:17;;;;;;;27.60;5.57;;;;;;;14.47;63.08;93461.41;5063700;28;20024;-77
2023/10/25 01:32:42;;;;;;;21.88;4.25;;;;;;;14.47;63.16;93464.09;5063577;28;20032;-76
2023/10/25 01:35:08;;;;;;;19.55;3.90;;;;;;;14.46;63.05;93467.88;5063528;28;20307;-76
2023/10/25 01:37:34;;;;;;;16.65;2.75;;;;;;;14.49;62.64;93467.22;5063529;28;20088;-76
2023/10/25 01:39:59;;;;;;;11.52;3.03;;;;;;;14.48;62.93;93462.19;5063648;28;20029;-76
2023/10/25 01:42:25;;;;;;;18.08;4.13;;;;;;;14.46;63.09;93473.25;5063573;28;20334;-76
2023/10/25 01:44:50;;;;;;;19.88;4.00;;;;;;;14.47;62.99;93474.81;5063226;28;20032;-76
2023/10/25 01:47:16;;;;;;;13.23;4.03;;;;;;;14.45;62.33;93482.44;5062947;28;20037;-76
2023/10/25 01:49:43;;;;;;;20.38;3.38;;;;;;;14.47;62.33;93504.31;5063312;28;20032;-77
2023/10/25 01:52:08;;;;;;;14.40;3.90;;;;;;;14.41;62.55;93484.22;5063544;28;20037;-76
2023/10/25 01:54:34;;;;;;;12.30;4.10;;;;;;;14.38;62.72;93487.59;5063134;28;20322;-79
2023/10/25 01:57:00;;;;;;;12.63;3.13;;;;;;;14.39;62.57;93497.19;5063175;28;20024;-80
2023/10/25 01:59:25;;;;;;;13.45;3.78;;;;;;;14.40;62.20;93496.09;5063308;28;20048;-79
2023/10/25 02:01:51;;;;;;;15.43;3.13;;;;;;;14.39;62.12;93489.16;5063263;28;20208;-79
2023/10/25 02:04:16;;;;;;;13.60;3.58;;;;;;;14.39;62.11;93510.59;5063107;28;20326;-80
2023/10/25 02:06:41;;;;;;;14.60;3.45;;;;;;;14.35;62.10;93504.38;5063129;28;20029;-80
2023/10/25 02:09:07;;;;;;;23.83;3.92;;;;;;;14.36;62.41;93503.25;5063293;28;20021;-82
2023/10/25 02:11:33;;;;;;;23.23;4.47;;;;;;;14.36;62.22;93495.97;5063368;28;20092;-80
2023/10/25 02:13:58;;;;;;;17.25;3.88;;;;;;;14.40;62.38;93496.84;5063357;28;20303;-80
2023/10/25 02:16:23;;;;;;;14.73;4.75;;;;;;;14.38;62.74;93482.25;5063026;28;20325;-80
2023/10/25 02:18:49;;;;;;;21.77;4.47;;;;;;;14.37;63.15;93469.94;5061592;28;20042;-80
2023/10/25 02:21:14;;;;;;;22.08;4.00;;;;;;;14.36;62.98;93474.53;5063130;28;20031;-81
2023/10/25 02:23:40;;;;;;;19.98;4.25;;;;;;;14.40;63.00;93485.34;5061869;28;20078;-79
2023/10/25 02:26:05;;;;;;;16.83;3.85;;;;;;;14.42;63.17;93483.09;5063085;28;20025;-79
2023/10/25 02:28:31;;;;;;;17.80;4.05;;;;;;;14.40;63.38;93485.34;5062597;28;20032;-79
2023/10/25 02:30:56;;;;;;;16.80;4.80;;;;;;;14.42;63.33;93480.44;5062715;28;20025;-81
2023/10/25 02:33:22;;;;;;;15.68;4.05;;;;;;;14.44;63.50;93470.13;5062845;28;20021;-80
2023/10/25 02:35:47;;;;;;;14.30;3.67;;;;;;;14.41;63.77;93457.41;5062799;28;20021;-80
2023/10/25 02:38:13;;;;;;;19.38;3.55;;;;;;;14.37;63.87;93437.78;5062604;28;20337;-80
2023/10/25 02:40:38;;;;;;;18.70;5.97;;;;;;;14.37;63.86;93422.50;5062722;28;20021;-80
2023/10/25 02:43:04;;;;;;;29.83;4.70;;;;;;;14.37;63.81;93413.66;5062888;28;20253;-80
2023/10/25 02:45:29;;;;;;;24.58;4.63;;;;;;;14.35;64.19;93391.78;5061449;28;20144;-80
2023/10/25 02:47:55;;;;;;;12.90;4.43;;;;;;;14.30;64.45;93378.66;5062949;28;20025;-79
2023/10/25 02:50:21;;;;;;;16.48;4.28;;;;;;;14.29;64.01;93385.13;5062410;28;20028;-79
2023/10/25 02:52:48;;;;;;;14.35;3.88;;;;;;;14.34;64.14;93392.91;5062677;28;20020;-79
2023/10/25 02:55:15;;;;;;;22.30;4.47;;;;;;;14.32;63.98;93371.03;5062637;28;20362;-82
2023/10/25 02:57:41;;;;;;;14.05;5.80;;;;;;;14.37;63.95;93355.47;5062252;28;20338;-82
2023/10/25 03:00:07;;;;;;;21.10;4.63;;;;;;;14.41;62.93;93348.28;5066660;28;20105;-82
2023/10/25 03:02:32;;;;;;;12.73;4.10;;;;;;;14.47;63.22;93351.47;5066595;28;20092;-82
2023/10/25 03:04:58;;;;;;;15.45;3.70;;;;;;;14.56;62.26;93346.72;5066565;28;20247;-82
2023/10/25 03:07:24;;;;;;;18.27;3.50;;;;;;;14.69;61.71;93341.22;5065306;28;20043;-82
2023/10/25 03:09:49;;;;;;;19.00;4.72;;;;;;;14.79;61.01;93346.81;5066378;28;20287;-82
2023/10/25 03:12:14;;;;;;;25.58;3.97;;;;;;;14.93;59.97;93342.88;5066110;28;20092;-83
2023/10/25 03:14:40;;;;;;;16.50;4.18;;;;;;;15.04;60.69;93360.75;5066302;28;20314;-83
2023/10/25 03:17:05;;;;;;;22.92;4.93;;;;;;;15.00;61.04;93354.53;5066401;28;20021;-83
2023/10/25 03:19:31;;;;;;;22.00;3.95;;;;;;;14.94;61.13;93331.00;5065995;28;20056;-76
2023/10/25 03:21:57;;;;;;;18.80;3.75;;;;;;;14.88;61.71;93360.03;5064949;28;20028;-77
2023/10/25 03:24:23;;;;;;;20.05;3.65;;;;;;;14.71;61.89;93349.69;5064872;28;20024;-77
2023/10/25 03:26:48;;;;;;;22.05;4.57;;;;;;;14.65;62.33;93346.50;5064411;28;20269;-77
2023/10/25 03:29:14;;;;;;;19.40;3.90;;;;;;;14.59;62.99;93355.94;5065469;28;20044;-77
2023/10/25 03:31:39;;;;;;;20.20;4.38;;;;;;;14.47;62.96;93343.44;5065903;28;20123;-77
2023/10/25 03:34:05;;;;;;;21.92;3.58;;;;;;;14.49;63.04;93335.00;5066212;28;20024;-77
2023/10/25 03:36:30;;;;;;;15.90;4.15;;;;;;;14.52;63.38;93350.41;5066032;28;20021;-81
2023/10/25 03:38:56;;;;;;;22.92;4.90;;;;;;;14.55;63.07;93366.59;5065899;28;20028;-81
2023/10/25 03:41:21;;;;;;;15.27;4.18;;;;;;;14.56;63.04;93354.75;5065831;28;20421;-81
2023/10/25 03:43:46;;;;;;;16.15;4.75;;;;;;;14.60;63.06;93357.53;5065715;28;20029;-80
2023/10/25 03:46:12;;;;;;;17.92;4.05;;;;;;;14.65;63.40;93357.22;5065713;28;20033;-77
2023/10/25 03:48:38;;;;;;;18.08;3.92;;;;;;;14.67;62.74;93338.88;5065589;28;20219;-77
2023/10/25 03:51:05;;;;;;;22.00;4.47;;;;;;;14.63;62.98;93365.66;5065366;28;20032;-77
2023/10/25 03:53:33;;;;;;;24.95;4.45;;;;;;;14.68;63.36;93394.09;5065267;28;20100;-78
2023/10/25 03:55:58;;;;;;;24.17;4.45;;;;;;;14.66;63.03;93368.75;5065262;28;20020;-78
2023/10/25 03:58:24;;;;;;;16.95;3.72;;;;;;;14.62;63.38;93361.41;5065231;28;20063;-78
2023/10/25 04:01:04;;;;;;;22.73;3.90;;;;;;;14.61;63.31;93346.44;5065324;28;20017;-78
2023/10/25 04:03:30;;;;;;;19.58;4.70;;;;;;;14.55;63.62;93368.47;5065274;28;20040;-78
2023/10/25 04:05:55;;;;;;;25.27;4.07;;;;;;;14.52;63.47;93340.47;5065182;28;20036;-78
2023/10/25 04:08:21;;;;;;;21.08;4.88;;;;;;;14.58;63.71;93352.50;5064849;28;20092;-77
2023/10/25 04:10:56;;;;;;;16.50;4.40;;;;;;;14.59;63.93;93343.34;5065087;28;20052;-78
2023/10/25 04:13:22;;;;;;;20.02;5.20;;;;;;;14.61;63.83;93349.13;5064962;28;20035;-78
2023/10/25 04:15:57;;;;;;;26.75;5.25;;;;;;;14.62;63.64;93349.91;5065181;28;20046;-78
2023/10/25 04:18:24;;;;;;;25.08;4.75;;;;;;;14.63;63.87;93352.25;5064751;28;20057;-78
2023/10/25 04:20:51;;;;;;;26.58;5.38;;;;;;;14.63;63.78;93365.66;5064955;28;20025;-78
2023/10/25 04:23:17;;;;;;;22.25;4.68;;;;;;;14.58;63.52;93363.22;5065076;28;20104;-78
2023/10/25 04:25:42;;;;;;;22.05;5.28;;;;;;;14.54;64.00;93380.34;5064956;28;20265;-78
2023/10/25 04:28:08;;;;;;;29.73;5.53;;;;;;;14.47;64.33;93366.75;5065126;28;20035;-80
2023/10/25 04:30:34;;;;;;;24.27;4.22;;;;;;;14.42;64.44;93352.50;5064864;28;20033;-80
2023/10/25 04:32:59;;;;;;;28.15;6.00;;;;;;;14.48;64.52;93365.66;5064736;28;20045;-80
2023/10/25 04:35:25;;;;;;;28.75;5.03;;;;;;;14.50;64.54;93348.09;5063551;28;20021;-80
2023/10/25 04:37:51;;;;;;;17.92;4.10;;;;;;;14.50;64.21;93340.03;5063488;28;20052;-80
2023/10/25 04:40:19;;;;;;;18.98;4.85;;;;;;;14.43;64.77;93324.56;5064695;28;20074;-80
2023/10/25 04:42:46;;;;;;;33.50;5.13;;;;;;;14.47;65.18;93332.72;5063257;28;20035;-78
2023/10/25 04:45:11;;;;;;;28.55;5.38;;;;;;;14.48;65.11;93331.56;5064570;28;20021;-78
2023/10/25 04:47:37;;;;;;;19.80;3.80;;;;;;;14.52;64.76;93318.25;5064717;28;20043;-78
2023/10/25 04:50:04;;;;;;;24.70;4.75;;;;;;;14.58;64.73;93304.22;5064374;28;20016;-78
2023/10/25 04:52:30;;;;;;;20.80;6.10;;;;;;;14.64;65.15;93308.19;5064193;28;20031;-78
2023/10/25 04:54:56;;;;;;;19.38;4.50;;;;;;;14.69;65.17;93282.22;5064303;28;20024;-79
2023/10/25 04:57:21;;;;;;;20.48;4.20;;;;;;;14.73;65.09;93288.44;5064241;28;20035;-79
2023/10/25 04:59:47;;;;;;;20.83;4.97;;;;;;;14.69;65.68;93282.22;5064144;28;20028;-79
2023/10/25 05:02:12;;;;;;;18.15;4.60;;;;;;;14.76;64.68;93268.97;5064018;28;20013;-81
2023/10/25 05:04:38;;;;;;;23.55;5.97;;;;;;;14.84;64.20;93271.41;5064260;28;20199;-81
2023/10/25 05:07:03;;;;;;;16.10;4.10;;;;;;;14.89;63.76;93264.97;5064058;28;20025;-81
2023/10/25 05:09:32;;;;;;;24.88;5.45;;;;;;;14.98;63.59;93295.06;5063742;28;20250;-81
2023/10/25 05:12:02;;;;;;;31.40;6.25;;;;;;;15.00;63.09;93290.13;5062659;28;20021;-81
2023/10/25 05:14:28;;;;;;;29.98;6.60;;;;;;;14.99;63.35;93304.66;5062690;28;20067;-81
2023/10/25 05:16:54;;;;;;;22.67;6.15;;;;;;;15.01;63.52;93299.72;5062459;28;20025;-81
2023/10/25 05:19:19;;;;;;;31.20;7.43;;;;;;;15.08;63.49;93309.03;5063602;28;20053;-81
2023/10/25 05:21:49;;;;;;;17.77;5.00;;;;;;;15.07;63.51;93316.31;5062877;28;20091;-80
2023/10/25 05:24:17;;;;;;;32.88;6.18;;;;;;;15.07;63.44;93307.50;5062375;28;20031;-80
2023/10/25 05:26:43;;;;;;;18.95;6.13;;;;;;;15.09;63.45;93306.00;5063558;28;20092;-80
2023/10/25 05:29:09;;;;;;;21.67;5.05;;;;;;;15.12;63.49;93288.41;5063583;28;20025;-81
2023/10/25 05:31:41;;;;;;;17.45;4.45;;;;;;;15.16;62.81;93300.78;5063430;28;20020;-80
2023/10/25 05:34:07;;;;;;;27.55;5.05;;;;;;;15.23;62.63;93308.19;5063501;28;20192;-78
2023/10/25 05:36:33;;;;;;;24.65;6.30;;;;;;;15.28;62.78;93286.41;5063386;28;20224;-78
2023/10/25 05:39:00;;;;;;;24.58;5.95;;;;;;;15.31;62.71;93293.75;5063401;28;20023;-78
2023/10/25 05:41:29;;;;;;;36.28;6.00;;;;;;;15.38;62.27;93293.88;5063275;28;20021;-79
2023/10/25 05:44:15;;;;;;;31.70;8.32;;;;;;;15.42;61.90;93288.56;5063291;28;20131;-78
2023/10/25 05:46:41;;;;;;;34.88;6.97;;;;;;;15.47;61.90;93306.28;5062868;28;20103;-79
2023/10/25 05:49:08;;;;;;;34.60;7.22;;;;;;;15.55;61.87;93305.28;5063201;28;20366;-79
2023/10/25 05:51:34;;;;;;;31.83;8.18;;;;;;;15.63;61.40;93317.69;5063282;28;20029;-79
2023/10/25 05:54:00;;;;;;;35.83;6.57;;;;;;;15.68;61.11;93252.94;5062031;28;20110;-78
2023/10/25 05:56:26;;;;;;;28.58;5.65;;;;;;;15.69;59.98;93316.28;5063137;28;20323;-77
2023/10/25 05:58:55;;;;;;;25.55;4.43;;;;;;;15.68;59.25;93277.13;5063006;28;20032;-78
2023/10/25 06:01:47;;;;;;;20.70;4.03;;;;;;;15.77;58.58;93311.84;5062937;28;20024;-77
2023/10/25 06:04:13;;;;;;;32.40;6.50;;;;;;;15.86;58.69;93330.41;5057266;28;20036;-77
2023/10/25 06:06:43;;;;;;;20.75;4.93;;;;;;;15.94;59.42;93330.16;5063207;28;20055;-77
2023/10/25 06:09:10;;;;;;;21.60;4.78;;;;;;;15.99;59.16;93292.22;5061917;28;20334;-78
2023/10/25 06:11:40;;;;;;;20.55;4.93;;;;;;;16.09;59.01;93333.09;5063078;28;20025;-78
2023/10/25 06:14:06;;;;;;;34.67;5.38;;;;;;;16.08;58.31;93343.06;5063365;28;20074;-83
2023/10/25 06:16:32;;;;;;;17.75;5.30;;;;;;;16.15;59.07;93300.16;5061588;28;20220;-82
2023/10/25 06:18:57;;;;;;;24.50;5.22;;;;;;;16.23;58.29;93341.38;5062815;28;20327;-85
2023/10/25 06:21:22;;;;;;;22.55;4.93;;;;;;;16.34;59.05;93318.09;5062745;28;20025;-77
2023/10/25 06:23:50;;;;;;;27.95;6.13;;;;;;;16.45;59.06;93310.19;5062959;28;20031;-78
2023/10/25 06:26:16;;;;;;;27.70;5.68;;;;;;;16.60;57.30;93324.59;5062916;28;20028;-84
2023/10/25 06:28:41;;;;;;;31.50;5.72;;;;;;;17.48;50.43;93274.09;5062552;28;20066;-80
2023/10/25 06:31:10;;;;;;;33.00;5.18;;;;;;;17.77;50.04;93308.25;5062827;28;20094;-80
2023/10/25 06:33:36;;;;;;;30.25;5.72;;;;;;;18.09;49.20;93299.69;5062980;28;20016;-80
2023/10/25 06:36:01;;;;;;;38.20;5.40;;;;;;;18.20;51.68;93314.03;5062883;28;20312;-78
2023/10/25 06:38:27;;;;;;;25.20;6.20;;;;;;;18.18;52.75;93296.69;5061281;28;20028;-77
2023/10/25 06:40:53;;;;;;;40.42;7.55;;;;;;;18.12;52.30;93301.63;5062672;28;20330;-77
2023/10/25 06:43:19;;;;;;;45.38;7.15;;;;;;;18.02;52.62;93313.13;5062540;28;20048;-77
2023/10/25 06:45:47;;;;;;;42.63;5.85;;;;;;;17.89;52.88;93309.16;5062500;28;20100;-77
2023/10/25 06:48:13;;;;;;;30.02;7.35;;;;;;;17.76;54.58;93301.31;5062492;28;20028;-77
2023/10/25 06:50:39;;;;;;;38.38;7.20;;;;;;;17.59;54.64;93307.31;5062721;28;20025;-78
2023/10/25 06:53:05;;;;;;;33.45;6.57;;;;;;;17.64;54.28;93332.00;5062780;28;20025;-78
2023/10/25 06:55:30;;;;;;;30.45;6.20;;;;;;;17.74;54.23;93327.84;5062356;28;20311;-78
2023/10/25 06:57:56;;;;;;;25.17;5.32;;;;;;;17.73;53.62;93342.50;5062330;28;20055;-78
2023/10/25 07:00:22;;;;;;;28.77;5.50;;;;;;;17.83;53.88;93333.00;5062406;28;20307;-78
2023/10/25 07:02:53;;;;;;;30.42;6.38;;;;;;;17.93;53.61;93329.63;5062226;28;20032;-78
2023/10/25 07:05:23;;;;;;;39.42;6.43;;;;;;;18.01;53.49;93314.25;5061267;28;20025;-78
2023/10/25 07:07:51;;;;;;;32.00;6.53;;;;;;;18.08;53.95;93316.25;5062359;28;20059;-82
2023/10/25 07:10:17;;;;;;;23.92;4.63;;;;;;;18.21;52.80;93328.28;5062373;28;20036;-74
2023/10/25 07:12:42;;;;;;;38.53;4.82;;;;;;;18.27;53.37;93344.91;5062153;28;20066;-73
2023/10/25 07:15:08;;;;;;;32.53;7.65;;;;;;;18.12;54.21;93334.00;5060944;28;20028;-73
2023/10/25 07:17:34;;;;;;;30.83;7.65;;;;;;;18.20;54.13;93341.00;5060941;28;20023;-76
2023/10/25 07:20:00;;;;;;;38.78;8.30;;;;;;;18.31;53.01;93341.06;5060589;28;20025;-77
2023/10/25 07:22:27;;;;;;;28.88;6.45;;;;;;;18.37;52.56;93338.81;5061210;28;20067;-78
2023/10/25 07:24:52;;;;;;;38.90;6.15;;;;;;;18.40;52.92;93332.69;5060570;28;20407;-77
2023/10/25 07:27:18;;;;;;;25.98;6.45;;;;;;;18.34;51.16;93331.44;5060364;28;20213;-78
2023/10/25 07:29:43;;;;;;;25.77;5.78;;;;;;;18.35;52.10;93338.41;5060438;28;20250;-78
2023/10/25 07:32:55;;;;;;;29.02;5.53;;;;;;;18.41;52.03;93334.97;5060754;28;20071;-78
2023/10/25 07:35:21;;;;;;;32.13;5.07;;;;;;;18.30;52.05;93371.91;5060587;28;20251;-78
2023/10/25 07:37:46;;;;;;;41.03;5.95;;;;;;;18.33;52.34;93370.38;5059330;28;20031;-78
2023/10/25 07:40:12;;;;;;;30.58;5.47;;;;;;;18.45;51.89;93370.09;5062056;28;20025;-78
2023/10/25 07:42:37;;;;;;;26.83;5.43;;;;;;;18.19;51.82;93339.44;5062137;28;20048;-79
2023/10/25 07:45:04;;;;;;;32.00;7.15;;;;;;;18.24;52.44;93381.50;5064837;28;20268;-79
2023/10/25 07:47:29;;;;;;;34.72;6.72;;;;;;;18.23;53.19;93337.53;5065651;28;20039;-79
2023/10/25 07:49:55;;;;;;;33.03;6.55;;;;;;;18.20;51.90;93370.69;5065491;28;20024;-79
2023/10/25 07:52:23;;;;;;;25.05;6.25;;;;;;;18.25;52.12;93350.66;5063682;28;20315;-80
2023/10/25 07:54:49;;;;;;;20.80;4.88;;;;;;;18.32;51.51;93376.91;5065237;28;20041;-79
2023/10/25 07:57:15;;;;;;;31.38;6.50;;;;;;;18.42;51.31;93378.94;5065530;28;20029;-78
2023/10/25 07:59:40;;;;;;;28.30;5.93;;;;;;;18.49;51.38;93387.06;5065584;28;20021;-79
2023/10/25 08:02:06;;;;;;;21.30;6.32;;;;;;;18.56;51.82;93384.44;5065287;28;20326;-79
2023/10/25 08:04:31;;;;;;;36.85;5.60;;;;;;;18.61;51.21;93364.44;5065146;28;20040;-78
2023/10/25 08:06:57;;;;;;;41.58;6.70;;;;;;;18.65;50.96;93376.78;5063930;28;20020;-78
2023/10/25 08:09:22;;;;;;;40.92;6.05;;;;;;;18.72;50.47;93396.88;5065247;28;20055;-79
2023/10/25 08:11:48;;;;;;;40.88;7.18;;;;;;;18.79;50.28;93416.63;5065000;28;20303;-80
2023/10/25 08:14:13;;;;;;;33.40;6.70;;;;;;;18.85;50.23;93406.25;5064923;28;20061;-79
2023/10/25 08:16:39;;;;;;;33.45;7.38;;;;;;;18.94;50.49;93409.38;5064853;28;20025;-79
2023/10/25 08:19:08;;;;;;;22.25;6.00;;;;;;;18.99;50.33;93373.94;5064809;28;20037;-79
2023/10/25 08:21:36;;;;;;;45.60;6.72;;;;;;;19.08;49.18;93386.31;5064775;28;20017;-78
2023/10/25 08:24:05;;;;;;;31.95;6.00;;;;;;;19.18;49.61;93401.81;5064717;28;20021;-79
2023/10/25 08:26:36;;;;;;;30.48;5.93;;;;;;;19.24;49.01;93397.59;5064830;28;20062;-78
2023/10/25 08:29:02;;;;;;;35.03;7.82;;;;;;;19.35;49.29;93405.75;5064897;28;20303;-78
2023/10/25 08:31:28;;;;;;;31.02;7.35;;;;;;;19.42;49.16;93403.84;5064521;28;20029;-78
2023/10/25 08:33:54;;;;;;;44.17;5.90;;;;;;;19.57;48.86;93399.25;5064696;28;20078;-78
2023/10/25 08:36:19;;;;;;;33.33;6.50;;;;;;;19.64;47.93;93412.03;5064901;28;20070;-77
2023/10/25 08:38:44;;;;;;;30.73;5.63;;;;;;;19.76;48.01;93382.00;5064662;28;20017;-78
2023/10/25 08:41:10;;;;;;;43.50;6.50;;;;;;;19.86;47.40;93402.09;5063169;28;20028;-78
2023/10/25 08:43:38;;;;;;;26.13;5.88;;;;;;;19.85;47.65;93395.16;5064367;28;20016;-77
2023/10/25 08:46:05;;;;;;;33.35;7.07;;;;;;;19.94;46.99;93421.81;5064536;28;20063;-78
2023/10/25 08:48:31;;;;;;;47.88;6.60;;;;;;;19.94;47.22;93414.47;5063329;28;20021;-78
2023/10/25 08:50:58;;;;;;;36.65;7.00;;;;;;;20.00;47.55;93418.34;5064365;28;20247;-78
2023/10/25 08:53:25;;;;;;;46.13;7.30;;;;;;;20.13;47.37;93404.44;5064259;28;20021;-78
2023/10/25 08:55:55;;;;;;;30.13;5.70;;;;;;;20.27;46.88;93404.47;5063340;28;20244;-78
2023/10/25 08:58:21;;;;;;;37.97;7.88;;;;;;;20.36;46.59;93413.00;5064436;28;20063;-77
2023/10/25 09:00:48;;;;;;;38.42;6.45;;;;;;;20.44;45.61;93419.19;5064231;28;20028;-78
2023/10/25 09:03:31;;;;;;;31.85;6.60;;;;;;;20.53;46.57;93400.63;5064325;28;20231;-77
2023/10/25 09:06:04;;;;;;;26.83;4.78;;;;;;;20.62;45.68;93397.56;5064052;28;20029;-78
2023/10/25 09:08:31;;;;;;;35.78;5.13;;;;;;;20.68;44.56;93400.63;5063853;28;20323;-77
2023/10/25 09:11:08;;;;;;;40.17;6.68;;;;;;;20.73;45.56;93389.44;5063910;28;20027;-78
2023/10/25 09:13:36;;;;;;;26.70;5.03;;;;;;;20.81;44.82;93389.03;5064068;28;20029;-77
2023/10/25 09:16:20;;;;;;;33.88;6.22;;;;;;;20.95;44.22;93407.19;5063908;28;20056;-77
2023/10/25 09:18:45;;;;;;;27.38;5.78;;;;;;;21.08;44.68;93404.06;5062623;28;20045;-78
2023/10/25 09:21:10;;;;;;;29.55;5.90;;;;;;;21.24;44.78;93396.28;5064016;28;20032;-77
2023/10/25 09:23:36;;;;;;;37.70;6.20;;;;;;;21.40;43.22;93407.47;5063816;28;20079;-77
2023/10/25 09:26:16;;;;;;;29.05;5.55;;;;;;;21.58;45.23;93388.44;5063826;28;20028;-79
2023/10/25 09:28:42;;;;;;;34.40;5.10;;;;;;;21.69;43.80;93391.09;5063722;28;20032;-77
2023/10/25 09:31:27;;;;;;;30.10;5.80;;;;;;;21.76;42.32;93401.94;5062596;28;20054;-80
2023/10/25 09:33:53;;;;;;;38.72;5.38;;;;;;;21.81;42.77;93401.50;5063676;28;20040;-79
2023/10/25 09:36:19;;;;;;;37.70;5.97;;;;;;;21.92;42.59;93404.19;5063657;28;20032;-79
2023/10/25 09:38:45;;;;;;;52.58;6.78;;;;;;;21.98;42.13;93390.94;5063474;28;20036;-81
2023/10/25 09:41:13;;;;;;;42.33;7.43;;;;;;;22.01;42.04;93392.88;5063482;28;20307;-82
2023/10/25 09:43:45;;;;;;;31.48;5.90;;;;;;;22.02;42.26;93378.13;5063030;28;20227;-81
2023/10/25 09:46:13;;;;;;;;;;;;;;;22.00;41.76;93377.75;5062160;28;20025;-82
2023/10/25 09:48:41;;;;;;;42.42;7.30;;;;;;;21.96;42.50;93382.44;5062714;28;19905;-81
2023/10/25 09:51:20;;;;;;;30.48;6.70;;;;;;;21.99;42.51;93376.22;5063540;28;20096;-81
2023/10/25 09:54:00;;;;;;;36.85;6.68;;;;;;;22.03;42.68;93376.97;5063290;28;20031;-82
2023/10/25 09:56:27;;;;;;;46.08;6.80;;;;;;;22.02;39.89;93380.84;5062396;28;20016;-82
2023/10/25 09:58:54;;;;;;;46.78;6.47;;;;;;;22.06;39.46;93359.88;5061490;28;20032;-82
2023/10/25 10:01:19;;;;;;;57.55;8.57;;;;;;;22.15;38.66;93349.38;5060166;28;20021;-82
2023/10/25 10:04:27;;;;;;;52.17;7.32;;;;;;;22.26;39.08;93341.16;5061031;28;20017;-81
2023/10/25 10:07:15;;;;;;;50.05;7.68;;;;;;;22.39;39.37;93334.09;5049366;28;20028;-81
2023/10/25 10:09:56;;;;;;;54.35;5.78;;;;;;;22.56;38.92;93321.53;5061085;28;20047;-82
2023/10/25 10:12:21;;;;;;;63.28;7.90;;;;;;;22.82;38.08;93335.66;5061614;28;20032;-82
2023/10/25 10:14:47;;;;;;;47.28;6.57;;;;;;;22.95;37.39;93339.38;5061729;28;20023;-80
2023/10/25 10:17:14;;;;;;;41.90;6.68;;;;;;;22.97;37.12;93331.59;5061860;28;20071;-80
2023/10/25 10:19:42;;;;;;;59.47;7.70;;;;;;;23.10;37.69;93325.66;5062550;28;20044;-82
2023/10/25 10:22:15;;;;;;;61.78;6.65;;;;;;;23.26;36.85;93317.69;5062917;28;20035;-82
2023/10/25 10:24:44;;;;;;;64.10;8.32;;;;;;;23.26;36.92;93311.50;5062800;28;20027;-81
2023/10/25 10:27:11;;;;;;;60.58;7.32;;;;;;;23.38;37.38;93308.25;5062840;28;20028;-84
2023/10/25 10:29:38;;;;;;;53.55;6.60;;;;;;;23.58;36.73;93317.31;5062651;28;20028;-83
2023/10/25 10:32:05;;;;;;;50.80;6.50;;;;;;;23.54;36.11;93296.78;5061351;28;20028;-84
2023/10/25 10:34:44;;;;;;;63.55;7.43;;;;;;;23.52;36.34;93296.41;5062770;28;20303;-84
2023/10/25 10:37:14;;;;;;;56.05;7.30;;;;;;;23.47;36.50;93310.47;5062766;28;20025;-84
2023/10/25 10:40:02;;;;;;;52.85;8.15;;;;;;;23.38;36.19;93308.25;5062583;28;20020;-83
2023/10/25 10:42:30;;;;;;;59.72;8.77;;;;;;;23.39;36.28;93296.97;5062439;28;20033;-84
2023/10/25 10:45:04;;;;;;;66.88;8.82;;;;;;;23.48;36.70;93298.41;5061664;28;20056;-85
2023/10/25 10:47:52;;;;;;;69.75;8.35;;;;;;;23.58;36.25;93295.53;5063139;28;20070;-85
2023/10/25 10:50:20;;;;;;;58.40;8.10;;;;;;;23.69;36.38;93286.47;5062573;28;20216;-85
2023/10/25 10:52:47;;;;;;;57.35;7.15;;;;;;;23.74;35.08;93278.63;5062361;28;20214;-83
2023/10/25 10:55:15;;;;;;;52.20;7.13;;;;;;;23.82;35.52;93301.09;5062549;28;20017;-84
2023/10/25 10:57:41;;;;;;;46.95;7.05;;;;;;;23.76;35.30;93310.88;5062645;28;20036;-85
2023/10/25 11:00:10;;;;;;;51.05;7.03;;;;;;;23.68;35.70;93282.97;5062407;28;20044;-84
2023/10/25 11:02:39;;;;;;;52.80;6.50;;;;;;;23.52;35.79;93286.31;5062326;28;20037;-83
2023/10/25 11:05:06;;;;;;;39.85;5.85;;;;;;;23.42;35.76;93281.78;5062698;28;20049;-83
2023/10/25 11:07:31;;;;;;;64.03;7.50;;;;;;;23.38;36.55;93289.97;5061069;28;20016;-83
2023/10/25 11:09:57;;;;;;;54.97;7.63;;;;;;;23.34;36.91;93281.09;5062227;28;20082;-83
2023/10/25 11:12:23;;;;;;;52.95;6.45;;;;;;;23.30;36.43;93277.66;5062842;28;20020;-79
2023/10/25 11:14:49;;;;;;;47.90;7.15;;;;;;;23.33;36.48;93278.81;5061720;28;20016;-82
2023/10/25 11:17:15;;;;;;;55.25;6.65;;;;;;;23.36;36.93;93283.41;5059018;28;20047;-87
2023/10/25 11:19:48;;;;;;;56.65;8.77;;;;;;;23.40;36.55;93284.13;5061256;28;20049;-87
2023/10/25 11:22:14;;;;;;;51.80;7.93;;;;;;;23.43;36.37;93289.53;5064839;28;20088;-87
2023/10/25 11:24:40;;;;;;;54.53;6.82;;;;;;;23.46;36.61;93296.09;5064736;28;20021;-87
2023/10/25 11:27:07;;;;;;;57.80;8.60;;;;;;;23.32;36.45;93282.69;5063954;28;20049;-86
2023/10/25 11:29:37;;;;;;;60.17;7.60;;;;;;;23.33;36.94;93287.72;5064654;28;20341;-87